Time;durP1;ratioP1;P1;durP2;ratioP2;P2;SDS_P1;SDS_P2;PMS_P1;PMS_P2;Temp;Humidity;BMP_temperature;BMP_pressure;BME280_temperature;BME280_humidity;BME280_pressure;Samples;Min_cycle;Max_cycle;Signal;HPM_P1;HPM_P2
2022/10/21 00:01:52;;;;;;;;;;;;;;;7.56;59.61;100607.69;4344434;32;19966;-94
2022/10/21 00:04:18;;;;;;;;;;;;;;;7.71;59.61;100601.56;4350877;32;20018;-95
2022/10/21 00:06:43;;;;;;;;;;;;;;;7.70;59.62;100597.25;4356408;32;20079;-95
2022/10/21 00:09:08;;;;;;;;;;;;;;;7.71;59.61;100601.56;4356409;32;19974;-95
2022/10/21 00:11:33;;;;;;;;;;;;;;;7.57;59.61;100600.78;4356313;32;20343;-95
2022/10/21 00:13:59;;;;;;;;;;;;;;;7.65;59.60;100594.69;4351358;32;19983;-96
2022/10/21 00:16:26;;;;;;;;;;;;;;;7.66;59.61;100608.50;4376448;32;19991;-95
2022/10/21 00:18:54;;;;;;;;;;;;;;;7.70;59.62;100597.25;4354916;32;19959;-95
2022/10/21 00:21:22;;;;;;;;;;;;;;;7.68;59.61;100599.84;4372365;32;20046;-96
2022/10/21 00:23:48;;;;;;;;;;;;;;;7.63;59.61;100596.44;4357048;32;19995;-93
2022/10/21 00:26:16;;;;;;;;;;;;;;;7.58;59.60;100593.03;4351617;32;19967;-95
2022/10/21 00:28:42;;;;;;;;;;;;;;;7.54;59.59;100585.25;4366778;32;19975;-95
2022/10/21 00:31:29;;;;;;;;;;;;;;;7.62;59.61;100584.34;4367471;32;19975;-95
2022/10/21 00:34:13;;;;;;;;;;;;;;;7.61;59.61;100580.03;4352639;32;19970;-95
2022/10/21 00:36:44;;;;;;;;;;;;;;;7.61;59.61;100585.22;4349196;32;19995;-95
2022/10/21 00:39:20;;;;;;;;;;;;;;;7.57;59.61;100575.75;4368462;32;20075;-96
2022/10/21 00:41:53;;;;;;;;;;;;;;;7.56;59.60;100563.63;4359617;32;19972;-95
2022/10/21 00:44:30;;;;;;;;;;;;;;;7.59;59.60;100561.06;4364881;32;19994;-96
2022/10/21 00:47:16;;;;;;;;;;;;;;;7.54;59.59;100573.16;4333064;33;20026;-96
2022/10/21 00:50:10;;;;;;;;;;;;;;;7.62;59.61;100566.22;4353994;32;20352;-96
2022/10/21 00:52:41;;;;;;;;;;;;;;;7.62;59.61;100563.63;4351653;32;19959;-95
2022/10/21 00:55:15;;;;;;;;;;;;;;;7.58;59.60;100564.53;4341150;32;19999;-96
2022/10/21 00:57:53;;;;;;;;;;;;;;;7.50;59.60;100557.66;4331199;32;20011;-96
2022/10/21 01:01:22;;;;;;;;;;;;;;;;;;;;;
2022/10/21 01:04:06;;;;;;;;;;;;;;;;;;;;;
2022/10/21 01:07:11;;;;;;;;;;;;;;;;;;;;;
2022/10/21 01:10:08;;;;;;;;;;;;;;;;;;;;;
2022/10/21 01:13:01;;;;;;;;;;;;;;;;;;;;;
2022/10/21 02:27:41;;;;;;;;;;;;;;;7.14;59.57;100525.94;4369989;32;20003;-96
2022/10/21 02:30:07;;;;;;;;;;;;;;;7.18;59.58;100524.19;4343136;32;20107;-95
2022/10/21 02:32:50;;;;;;;;;;;;;;;7.10;59.58;100526.84;4353639;32;20013;-96
2022/10/21 02:35:38;;;;;;;;;;;;;;;6.97;59.57;100536.38;4354912;32;20002;-96
2022/10/21 02:41:50;;;;;;;;;;;;;;;7.05;59.57;100537.19;4264649;33;20009;-96
2022/10/21 04:33:01;;;;;;;;;;;;;;;7.11;59.58;100465.56;4372786;27;19962;-96
2022/10/21 04:45:22;;;;;;;;;;;;;;;7.03;59.58;100435.38;4253393;33;20021;-96
2022/10/21 04:48:20;;;;;;;;;;;;;;;;;;;;;
2022/10/21 04:50:48;;;;;;;;;;;;;;;7.11;59.58;100429.31;4522871;27;36047;-96
2022/10/21 04:53:14;;;;;;;;;;;;;;;7.04;59.57;100421.56;4339977;33;20007;-96
2022/10/21 04:55:41;;;;;;;;;;;;;;;7.17;59.58;100418.91;4344961;32;19971;-96
2022/10/21 04:58:32;;;;;;;;;;;;;;;7.19;59.58;100430.97;4376460;32;19978;-95
2022/10/21 05:01:04;;;;;;;;;;;;;;;7.20;59.58;100431.81;4389170;32;20034;-96
2022/10/21 05:03:51;;;;;;;;;;;;;;;7.23;59.58;100426.63;4378602;32;19977;-96
2022/10/21 05:06:45;;;;;;;;;;;;;;;7.30;59.58;100436.06;4379164;32;19951;-96
2022/10/21 05:12:09;;;;;;;;;;;;;;;7.24;59.58;100430.94;4604062;27;20031;-95
2022/10/21 05:17:37;;;;;;;;;;;;;;;7.28;59.58;100417.94;5184208;27;21315;-94
2022/10/21 05:25:27;;;;;;;;;;;;;;;7.25;59.59;100428.31;4557817;27;19994;-96
2022/10/21 05:27:54;;;;;;;;;;;;;;;7.39;59.58;100436.84;4365876;32;20070;-96
2022/10/21 05:30:26;;;;;;;;;;;;;;;7.45;59.59;100429.91;4590578;27;19959;-96
2022/10/21 05:32:57;;;;;;;;;;;;;;;7.39;59.58;100436.00;4540760;27;19978;-95
2022/10/21 05:43:08;;;;;;;;;;;;;;;7.57;59.60;100441.03;4849121;27;19970;-96
2022/10/21 05:50:54;;;;;;;;;;;;;;;7.92;59.63;100412.16;4533459;27;19955;-96
2022/10/21 06:29:31;;;;;;;;;;;;;;;9.02;59.68;100472.25;4938288;27;19983;-92
2022/10/21 06:31:56;;;;;;;;;;;;;;;9.14;59.69;100472.06;4367628;32;20257;-93
2022/10/21 06:34:22;;;;;;;;;;;;;;;9.19;59.69;100484.09;4354695;32;32007;-92
2022/10/21 06:36:47;;;;;;;;;;;;;;;9.23;59.69;100491.00;4355696;32;20009;-92
2022/10/21 06:39:12;;;;;;;;;;;;;;;9.31;59.69;100472.69;4355308;32;20268;-92
2022/10/21 06:41:38;;;;;;;;;;;;;;;9.39;59.70;100467.34;4355405;32;19998;-93
2022/10/21 06:44:03;;;;;;;;;;;;;;;9.48;59.71;100455.09;4354839;32;23800;-91
2022/10/21 06:46:28;;;;;;;;;;;;;;;9.40;59.70;100456.09;4355296;32;19994;-92
2022/10/21 06:48:53;;;;;;;;;;;;;;;9.56;59.71;100454.09;4354605;32;32984;-93
2022/10/21 06:51:19;;;;;;;;;;;;;;;9.58;59.72;100457.53;4354729;32;26454;-92
2022/10/21 06:53:44;;;;;;;;;;;;;;;9.75;59.72;100448.56;4355287;32;19983;-91
2022/10/21 06:56:11;;;;;;;;;;;;;;;9.85;59.72;100439.72;4355290;32;19999;-92
2022/10/21 06:58:36;;;;;;;;;;;;;;;9.93;59.73;100439.56;4355200;32;19987;-92
2022/10/21 07:01:08;;;;;;;;;;;;;;;10.18;59.75;100437.37;4354995;32;19979;-92
2022/10/21 07:03:33;;;;;;;;;;;;;;;10.24;59.75;100447.69;4367449;32;19983;-92
2022/10/21 07:05:58;;;;;;;;;;;;;;;10.29;59.75;100437.19;4354755;32;20010;-92
2022/10/21 07:08:24;;;;;;;;;;;;;;;10.31;59.75;100445.81;4354846;32;20347;-92
2022/10/21 07:10:49;;;;;;;;;;;;;;;10.57;59.77;100438.34;4355157;32;19979;-92
2022/10/21 07:13:15;;;;;;;;;;;;;;;10.53;59.76;100438.44;4354356;32;30191;-92
2022/10/21 07:15:40;;;;;;;;;;;;;;;10.66;59.77;100445.12;4354464;32;27540;-93
2022/10/21 07:18:05;;;;;;;;;;;;;;;10.79;59.78;100438.75;4354266;32;28878;-92
2022/10/21 07:20:32;;;;;;;;;;;;;;;11.07;59.79;100433.75;4354858;32;20351;-92
2022/10/21 07:22:57;;;;;;;;;;;;;;;11.15;59.81;100442.28;4355118;32;20034;-93
2022/10/21 07:25:22;;;;;;;;;;;;;;;11.22;59.80;100445.59;4354736;32;20072;-92
2022/10/21 07:27:47;;;;;;;;;;;;;;;11.22;59.80;100445.59;4354866;32;19994;-91
2022/10/21 07:30:13;;;;;;;;;;;;;;;11.48;59.82;100455.38;4354627;32;19983;-92
2022/10/21 07:32:38;;;;;;;;;;;;;;;11.52;59.81;100446.59;4354318;32;20504;-93
2022/10/21 07:35:03;;;;;;;;;;;;;;;11.48;59.81;100458.84;4354165;32;32641;-93
2022/10/21 07:37:28;;;;;;;;;;;;;;;11.46;59.82;100465.00;4354675;32;20047;-92
2022/10/21 07:39:54;;;;;;;;;;;;;;;11.64;59.82;100461.94;4354270;32;27671;-93
2022/10/21 07:42:20;;;;;;;;;;;;;;;11.69;59.83;100447.03;4367184;32;19998;-92
2022/10/21 07:44:45;;;;;;;;;;;;;;;11.71;59.83;100441.78;4354645;32;20003;-92
2022/10/21 07:47:10;;;;;;;;;;;;;;;11.77;59.84;100444.22;4353783;32;37822;-93
2022/10/21 07:49:35;;;;;;;;;;;;;;;11.85;59.84;100440.56;4366634;32;22995;-93
2022/10/21 07:52:01;;;;;;;;;;;;;;;11.86;59.84;100441.44;4353962;32;26060;-93
2022/10/21 07:54:26;;;;;;;;;;;;;;;12.02;59.85;100434.03;4354497;32;20025;-92
2022/10/21 07:56:51;;;;;;;;;;;;;;;12.01;59.85;100425.34;4353543;32;36655;-94
2022/10/21 07:59:17;;;;;;;;;;;;;;;12.04;59.84;100417.44;4354479;32;20029;-92
2022/10/21 08:01:46;;;;;;;;;;;;;;;12.03;59.84;100420.09;4354286;32;20018;-93
2022/10/21 08:04:13;;;;;;;;;;;;;;;12.22;59.86;100408.25;4367508;32;20002;-93
2022/10/21 08:06:38;;;;;;;;;;;;;;;12.29;59.87;100394.97;4354647;32;19983;-93
2022/10/21 08:09:03;;;;;;;;;;;;;;;12.42;59.86;100405.06;4353897;32;19983;-92
2022/10/21 08:11:29;;;;;;;;;;;;;;;12.55;59.87;100406.44;4354335;32;19999;-91
2022/10/21 08:13:54;;;;;;;;;;;;;;;12.71;59.88;100407.66;4354148;32;20045;-92
2022/10/21 08:16:20;;;;;;;;;;;;;;;12.60;59.88;100400.16;4354093;32;19975;-93
2022/10/21 08:18:45;;;;;;;;;;;;;;;12.77;59.89;100391.78;4354634;32;19990;-93
2022/10/21 08:21:10;;;;;;;;;;;;;;;12.67;59.89;100387.78;4356049;32;20039;-93
2022/10/21 08:23:36;;;;;;;;;;;;;;;12.70;59.88;100381.59;4356156;32;20008;-93
2022/10/21 08:26:01;;;;;;;;;;;;;;;12.87;59.89;100390.63;4356381;32;20419;-93
2022/10/21 08:28:27;;;;;;;;;;;;;;;12.85;59.89;100387.22;4355087;32;34018;-92
2022/10/21 08:30:52;;;;;;;;;;;;;;;12.93;59.90;100381.72;4355777;32;19991;-92
2022/10/21 08:33:17;;;;;;;;;;;;;;;13.10;59.90;100382.06;4355856;32;19995;-93
2022/10/21 08:35:42;;;;;;;;;;;;;;;13.23;59.91;100386.91;4356086;32;20034;-92
2022/10/21 08:38:08;;;;;;;;;;;;;;;13.15;59.90;100380.16;4355646;32;19970;-93
2022/10/21 08:40:37;;;;;;;;;;;;;;;13.33;59.91;100363.03;4355715;32;20010;-93
2022/10/21 08:43:06;;;;;;;;;;;;;;;13.52;59.93;100360.66;4355742;32;20034;-92
2022/10/21 08:45:37;;;;;;;;;;;;;;;13.61;59.93;100364.72;4356003;32;19993;-92
2022/10/21 08:48:03;;;;;;;;;;;;;;;13.81;59.95;100363.09;4355854;32;20687;-92
2022/10/21 08:50:29;;;;;;;;;;;;;;;13.89;59.95;100364.59;4355680;32;19983;-92
2022/10/21 08:52:54;;;;;;;;;;;;;;;13.95;59.94;100349.50;4355608;32;20013;-93
2022/10/21 08:55:20;;;;;;;;;;;;;;;14.11;59.96;100349.81;4368297;32;19997;-94
2022/10/21 08:57:46;;;;;;;;;;;;;;;14.08;59.96;100342.09;4368013;32;19991;-92
2022/10/21 09:00:18;;;;;;;;;;;;;;;14.27;59.97;100340.50;4355735;32;20443;-93
2022/10/21 09:02:50;;;;;;;;;;;;;;;14.31;59.97;100342.06;4355647;32;19999;-93
2022/10/21 09:05:24;;;;;;;;;;;;;;;14.48;59.99;100328.37;4368043;32;19979;-93
2022/10/21 09:07:59;;;;;;;;;;;;;;;14.57;59.99;100330.62;4355672;32;20006;-93
2022/10/21 09:10:28;;;;;;;;;;;;;;;14.69;59.99;100334.53;4355833;32;20353;-94
2022/10/21 09:12:53;;;;;;;;;;;;;;;14.89;60.01;100329.34;4355720;32;20049;-94
2022/10/21 09:15:23;;;;;;;;;;;;;;;15.11;60.02;100324.06;4368075;32;19994;-93
2022/10/21 09:18:07;;;;;;;;;;;;;;;15.34;60.03;100318.72;4355773;32;20020;-93
2022/10/21 09:20:39;;;;;;;;;;;;;;;15.44;60.04;100315.72;4368305;32;19995;-93
2022/10/21 09:23:23;;;;;;;;;;;;;;;15.43;60.03;100317.50;4367934;32;20007;-93
2022/10/21 09:26:01;;;;;;;;;;;;;;;15.47;60.04;100311.19;4368230;32;19975;-94
2022/10/21 09:28:26;;;;;;;;;;;;;;;15.54;60.03;100309.13;4355759;32;19979;-93
2022/10/21 09:30:51;;;;;;;;;;;;;;;15.48;60.04;100318.13;4355679;32;19983;-93
2022/10/21 09:33:18;;;;;;;;;;;;;;;15.52;60.03;100316.22;4355428;32;22573;-94
2022/10/21 09:35:48;;;;;;;;;;;;;;;15.55;60.04;100298.56;4355643;32;19983;-93
2022/10/21 09:38:15;;;;;;;;;;;;;;;15.52;60.03;100295.25;4355690;32;19987;-94
2022/10/21 09:40:40;;;;;;;;;;;;;;;15.52;60.03;100290.84;4355815;32;20005;-94
2022/10/21 09:43:09;;;;;;;;;;;;;;;15.67;60.04;100299.00;4354778;32;36479;-93
2022/10/21 09:45:35;;;;;;;;;;;;;;;15.53;60.03;100284.66;4355747;32;19978;-94
2022/10/21 09:48:02;;;;;;;;;;;;;;;15.53;60.03;100276.81;4368166;32;19974;-92
2022/10/21 09:50:27;;;;;;;;;;;;;;;15.64;60.05;100286.88;4355416;32;20664;-93
2022/10/21 09:53:16;;;;;;;;;;;;;;;15.66;60.04;100274.53;4355247;32;20002;-93
2022/10/21 09:55:42;;;;;;;;;;;;;;;15.70;60.06;100276.09;4362083;32;19946;-93
2022/10/21 09:58:09;;;;;;;;;;;;;;;15.68;60.04;100275.31;4355501;32;20037;-94
2022/10/21 10:00:42;;;;;;;;;;;;;;;15.78;60.04;100273.12;4355335;32;19991;-93
2022/10/21 10:03:08;;;;;;;;;;;;;;;15.68;60.05;100271.84;4355671;32;20010;-94
2022/10/21 10:05:35;;;;;;;;;;;;;;;15.75;60.05;100268.88;4355623;32;19983;-94
2022/10/21 10:08:13;;;;;;;;;;;;;;;15.67;60.04;100263.13;4355496;32;20295;-93
2022/10/21 10:10:38;;;;;;;;;;;;;;;15.92;60.06;100254.97;4355494;32;20006;-93
2022/10/21 10:13:03;;;;;;;;;;;;;;;16.11;60.08;100245.34;4354796;32;26650;-92
2022/10/21 10:15:32;;;;;;;;;;;;;;;16.05;60.07;100240.34;4354480;32;32843;-93
2022/10/21 10:17:58;;;;;;;;;;;;;;;16.13;60.07;100243.47;4355349;32;19986;-93
2022/10/21 10:20:23;;;;;;;;;;;;;;;16.17;60.08;100233.69;4355460;32;20024;-93
2022/10/21 10:22:57;;;;;;;;;;;;;;;16.28;60.08;100226.13;4355257;32;19991;-94
2022/10/21 10:25:24;;;;;;;;;;;;;;;16.30;60.08;100223.44;4367671;32;20055;-94
2022/10/21 10:27:55;;;;;;;;;;;;;;;16.41;60.09;100229.03;4355308;32;19987;-94
2022/10/21 10:30:21;;;;;;;;;;;;;;;16.62;60.10;100233.25;4367450;32;19990;-93
2022/10/21 10:32:46;;;;;;;;;;;;;;;16.69;60.10;100226.78;4355098;32;20346;-94
2022/10/21 10:35:38;;;;;;;;;;;;;;;16.84;60.11;100220.78;4355253;32;19990;-93
2022/10/21 10:38:03;;;;;;;;;;;;;;;16.89;60.11;100217.91;4365117;32;19997;-94
2022/10/21 10:40:31;;;;;;;;;;;;;;;17.09;60.13;100209.00;4355241;32;20051;-93
2022/10/21 10:43:08;;;;;;;;;;;;;;;17.03;60.12;100206.66;4354708;32;20052;-95
2022/10/21 10:45:34;;;;;;;;;;;;;;;17.04;60.12;100203.13;4355685;32;19991;-93
2022/10/21 10:47:59;;;;;;;;;;;;;;;17.03;60.12;100189.09;4354835;32;20280;-93
2022/10/21 10:50:36;;;;;;;;;;;;;;;17.02;60.12;100190.03;4355058;32;20419;-94
2022/10/21 10:53:22;;;;;;;;;;;;;;;17.03;60.12;100190.88;4367533;32;20044;-93
2022/10/21 10:55:47;;;;;;;;;;;;;;;17.07;60.12;100179.31;4367811;32;19970;-93
2022/10/21 10:58:12;;;;;;;;;;;;;;;16.95;60.12;100174.66;4355054;32;20081;-93
2022/10/21 11:00:39;;;;;;;;;;;;;;;16.95;60.12;100159.72;4354744;32;20812;-93
2022/10/21 11:03:06;;;;;;;;;;;;;;;17.07;60.12;100158.25;4355144;32;19998;-93
2022/10/21 11:05:37;;;;;;;;;;;;;;;17.05;60.12;100160.97;4355301;32;20009;-93
2022/10/21 11:08:10;;;;;;;;;;;;;;;17.02;60.12;100161.09;4367086;32;20000;-93
2022/10/21 11:10:36;;;;;;;;;;;;;;;17.01;60.13;100161.19;4354649;32;19995;-94
2022/10/21 11:13:07;;;;;;;;;;;;;;;16.97;60.12;100159.66;4354960;32;20284;-93
2022/10/21 11:15:52;;;;;;;;;;;;;;;17.01;60.13;100151.50;4354820;32;19979;-94
2022/10/21 11:18:25;;;;;;;;;;;;;;;16.98;60.12;100156.94;4381226;32;19955;-93
2022/10/21 11:20:56;;;;;;;;;;;;;;;16.93;60.12;100148.44;4354963;32;19955;-94
2022/10/21 11:23:31;;;;;;;;;;;;;;;17.05;60.13;100154.88;4367353;32;20054;-93
2022/10/21 11:25:58;;;;;;;;;;;;;;;17.13;60.13;100145.63;4367091;32;19995;-93
2022/10/21 11:28:31;;;;;;;;;;;;;;;17.08;60.13;100141.53;4367226;32;20005;-93
2022/10/21 11:30:56;;;;;;;;;;;;;;;17.07;60.12;100132.81;4354377;32;20038;-93
2022/10/21 11:33:27;;;;;;;;;;;;;;;17.16;60.14;100116.53;4380770;32;20122;-93
2022/10/21 11:35:53;;;;;;;;;;;;;;;17.12;60.12;100127.31;4380922;32;20014;-95
2022/10/21 11:38:37;;;;;;;;;;;;;;;17.09;60.13;100111.69;4366989;32;20293;-94
2022/10/21 11:41:15;;;;;;;;;;;;;;;17.11;60.13;100104.56;4367102;32;20014;-94
2022/10/21 11:43:59;;;;;;;;;;;;;;;17.03;60.13;100090.94;4367213;32;19999;-94
2022/10/21 11:46:37;;;;;;;;;;;;;;;16.99;60.12;100097.31;4366944;32;19947;-94
2022/10/21 11:49:05;;;;;;;;;;;;;;;16.99;60.12;100100.78;4366925;32;20355;-95
2022/10/21 11:51:31;;;;;;;;;;;;;;;16.79;60.11;100107.06;4354319;32;19987;-94
2022/10/21 11:53:56;;;;;;;;;;;;;;;16.73;60.11;100101.28;4367368;32;20121;-93
2022/10/21 11:56:22;;;;;;;;;;;;;;;16.76;60.11;100103.75;4368661;32;20021;-94
2022/10/21 11:58:47;;;;;;;;;;;;;;;16.73;60.11;100096.88;4356108;32;20046;-94
2022/10/21 12:01:15;;;;;;;;;;;;;;;16.75;60.11;100078.41;4382468;32;20058;-93
2022/10/21 12:03:43;;;;;;;;;;;;;;;16.78;60.12;100079.09;4368631;32;19978;-94
2022/10/21 12:06:17;;;;;;;;;;;;;;;16.87;60.12;100072.53;4368608;32;19992;-94
2022/10/21 12:08:46;;;;;;;;;;;;;;;16.95;60.12;100080.00;4368848;32;20050;-93
2022/10/21 12:11:12;;;;;;;;;;;;;;;17.00;60.13;100084.06;4356209;32;20567;-94
2022/10/21 12:13:38;;;;;;;;;;;;;;;17.04;60.13;100072.47;4356276;32;20398;-94
2022/10/21 12:16:05;;;;;;;;;;;;;;;16.81;60.12;100071.06;4368423;32;19962;-93
2022/10/21 12:18:30;;;;;;;;;;;;;;;16.98;60.12;100070.16;4368243;32;19963;-94
2022/10/21 12:20:55;;;;;;;;;;;;;;;17.06;60.12;100067.13;4367751;32;34296;-94
2022/10/21 12:23:21;;;;;;;;;;;;;;;17.13;60.13;100071.13;4368347;32;20033;-94
2022/10/21 12:26:05;;;;;;;;;;;;;;;16.98;60.12;100070.16;4368596;32;19978;-94
2022/10/21 12:28:35;;;;;;;;;;;;;;;16.94;60.12;100067.78;4382410;32;19983;-94
2022/10/21 12:31:00;;;;;;;;;;;;;;;16.78;60.12;100062.47;4355984;32;19991;-94
2022/10/21 12:33:33;;;;;;;;;;;;;;;16.88;60.12;100061.91;4368410;32;19970;-94
2022/10/21 12:36:12;;;;;;;;;;;;;;;16.86;60.12;100057.69;4368678;32;19975;-94
2022/10/21 12:38:42;;;;;;;;;;;;;;;16.87;60.12;100054.13;4356019;32;19983;-94
2022/10/21 12:41:33;;;;;;;;;;;;;;;16.97;60.13;100055.31;4382008;32;20005;-94
2022/10/21 12:44:01;;;;;;;;;;;;;;;16.80;60.11;100050.13;4363296;32;19994;-93
2022/10/21 12:46:27;;;;;;;;;;;;;;;16.73;60.11;100046.94;4368587;32;19999;-93
2022/10/21 12:48:52;;;;;;;;;;;;;;;16.69;60.12;100044.56;4355873;32;19975;-94
2022/10/21 12:51:22;;;;;;;;;;;;;;;16.58;60.10;100040.69;4356252;32;19995;-93
2022/10/21 12:54:12;;;;;;;;;;;;;;;16.68;60.10;100033.19;4356007;32;20049;-94
2022/10/21 12:56:50;;;;;;;;;;;;;;;16.76;60.11;100038.03;4368703;32;19980;-94
2022/10/21 12:59:35;;;;;;;;;;;;;;;16.66;60.11;100031.56;4368597;32;20090;-94
2022/10/21 13:02:03;;;;;;;;;;;;;;;16.62;60.11;100032.66;4368163;32;19963;-93
2022/10/21 13:04:31;;;;;;;;;;;;;;;16.78;60.12;100030.91;4368088;32;20003;-94
2022/10/21 13:07:14;;;;;;;;;;;;;;;16.78;60.12;100025.66;4381962;32;19975;-94
2022/10/21 13:09:41;;;;;;;;;;;;;;;16.92;60.12;100036.31;4370462;32;19995;-93
2022/10/21 13:12:09;;;;;;;;;;;;;;;16.98;60.13;100033.34;4371175;32;20045;-93
2022/10/21 13:14:38;;;;;;;;;;;;;;;16.91;60.12;100029.34;4370848;32;20015;-94
2022/10/21 13:17:33;;;;;;;;;;;;;;;16.87;60.12;100028.66;4368132;32;19971;-94
2022/10/21 13:20:17;;;;;;;;;;;;;;;16.71;60.12;100027.78;4371998;32;20017;-94
2022/10/21 13:22:42;;;;;;;;;;;;;;;16.81;60.11;100012.38;4367959;32;19991;-93
2022/10/21 13:25:20;;;;;;;;;;;;;;;16.73;60.11;100012.75;4367756;32;20006;-94
2022/10/21 13:27:53;;;;;;;;;;;;;;;16.73;60.11;100010.13;4355508;32;19997;-93
2022/10/21 13:30:24;;;;;;;;;;;;;;;16.77;60.12;100006.41;4355605;32;20336;-94
2022/10/21 13:32:58;;;;;;;;;;;;;;;16.80;60.11;100000.16;4369260;32;20018;-93
2022/10/21 13:35:26;;;;;;;;;;;;;;;16.68;60.12;100004.28;4356493;32;19998;-92
2022/10/21 13:37:59;;;;;;;;;;;;;;;16.72;60.12;100000.56;4368159;32;20676;-93
2022/10/21 13:40:29;;;;;;;;;;;;;;;16.75;60.11;99995.13;4366196;32;20042;-93
2022/10/21 13:42:56;;;;;;;;;;;;;;;16.71;60.12;99993.59;4354368;32;20011;-93
2022/10/21 13:45:28;;;;;;;;;;;;;;;16.66;60.11;99992.13;4366604;32;20054;-94
2022/10/21 13:47:57;;;;;;;;;;;;;;;16.66;60.11;99997.38;4366929;32;19999;-94
2022/10/21 13:50:24;;;;;;;;;;;;;;;16.54;60.09;99996.22;4367134;32;20001;-94
2022/10/21 13:52:51;;;;;;;;;;;;;;;16.49;60.10;99987.75;4354669;32;20006;-93
2022/10/21 13:55:18;;;;;;;;;;;;;;;16.57;60.11;99990.84;4355641;32;19998;-94
2022/10/21 13:57:45;;;;;;;;;;;;;;;16.67;60.11;99981.56;4358637;32;20022;-93
2022/10/21 14:00:21;;;;;;;;;;;;;;;16.74;60.11;99979.44;4371788;32;19951;-94
2022/10/21 14:02:50;;;;;;;;;;;;;;;16.80;60.12;99972.09;4370736;32;20033;-94
2022/10/21 14:05:30;;;;;;;;;;;;;;;16.75;60.11;99966.22;4368188;32;20001;-93
2022/10/21 14:07:55;;;;;;;;;;;;;;;16.75;60.11;99976.72;4380576;32;19959;-93
2022/10/21 14:10:21;;;;;;;;;;;;;;;16.80;60.12;99974.72;4366530;32;21655;-95
2022/10/21 14:12:46;;;;;;;;;;;;;;;16.71;60.12;99975.19;4367025;32;20006;-94
2022/10/21 14:15:17;;;;;;;;;;;;;;;16.72;60.12;99970.78;4367551;32;19983;-94
2022/10/21 14:17:43;;;;;;;;;;;;;;;16.66;60.11;99965.84;4366695;32;19979;-91
2022/10/21 14:20:13;;;;;;;;;;;;;;;16.71;60.12;99959.44;4352741;32;20018;-90
2022/10/21 14:22:38;;;;;;;;;;;;;;;16.53;60.10;99963.84;4367263;32;20017;-92
2022/10/21 14:25:03;;;;;;;;;;;;;;;16.49;60.10;99956.22;4367154;32;20620;-93
2022/10/21 14:27:32;;;;;;;;;;;;;;;16.45;60.10;99958.16;4368087;32;20018;-91
2022/10/21 14:29:57;;;;;;;;;;;;;;;16.45;60.10;99949.44;4355599;32;19987;-91
2022/10/21 14:32:23;;;;;;;;;;;;;;;16.42;60.10;99952.22;4367747;32;20378;-93
2022/10/21 14:34:55;;;;;;;;;;;;;;;16.34;60.10;99959.66;4355739;32;19987;-92
2022/10/21 14:37:20;;;;;;;;;;;;;;;16.41;60.11;99961.03;4367919;32;20645;-93
2022/10/21 14:39:45;;;;;;;;;;;;;;;16.44;60.10;99953.00;4354767;32;19996;-90
2022/10/21 14:42:11;;;;;;;;;;;;;;;16.50;60.10;99950.03;4355341;32;19987;-89
2022/10/21 14:44:37;;;;;;;;;;;;;;;16.34;60.10;99955.25;4367549;32;19990;-90
2022/10/21 14:47:02;;;;;;;;;;;;;;;16.36;60.09;99952.56;4367636;32;19979;-90
2022/10/21 14:49:31;;;;;;;;;;;;;;;16.27;60.10;99946.84;4367601;32;19987;-91
2022/10/21 14:52:00;;;;;;;;;;;;;;;16.30;60.09;99951.06;4354962;32;20054;-91
2022/10/21 14:54:46;;;;;;;;;;;;;;;16.27;60.09;99953.88;4367297;32;19998;-91
2022/10/21 14:57:19;;;;;;;;;;;;;;;16.20;60.09;99955.97;4366868;32;19991;-91
2022/10/21 14:59:44;;;;;;;;;;;;;;;16.19;60.08;99954.28;4367357;32;19979;-89
2022/10/21 15:02:15;;;;;;;;;;;;;;;16.14;60.08;99953.66;4353789;32;32267;-90
2022/10/21 15:04:52;;;;;;;;;;;;;;;16.15;60.08;99950.13;4366618;32;20017;-89
2022/10/21 15:07:24;;;;;;;;;;;;;;;16.12;60.08;99944.19;4366389;32;20073;-92
2022/10/21 15:10:01;;;;;;;;;;;;;;;15.97;60.07;99956.31;4366492;32;19990;-90
2022/10/21 15:12:46;;;;;;;;;;;;;;;16.00;60.09;99940.37;4366235;32;19993;-89
2022/10/21 15:15:30;;;;;;;;;;;;;;;16.00;60.08;99932.50;4380839;32;19989;-90
2022/10/21 15:17:58;;;;;;;;;;;;;;;15.87;60.07;99920.97;4367431;32;20027;-89
2022/10/21 15:20:25;;;;;;;;;;;;;;;15.88;60.08;99917.41;4367023;32;19970;-89
2022/10/21 15:22:52;;;;;;;;;;;;;;;15.75;60.07;99930.28;4366987;32;19990;-91
2022/10/21 15:25:18;;;;;;;;;;;;;;;15.85;60.08;99928.03;4366881;32;19998;-89
2022/10/21 15:27:43;;;;;;;;;;;;;;;15.79;60.07;99930.97;4367161;32;20018;-91
2022/10/21 15:30:18;;;;;;;;;;;;;;;15.70;60.07;99936.69;4353756;32;25820;-90
2022/10/21 15:32:44;;;;;;;;;;;;;;;15.60;60.05;99933.66;4367321;32;20033;-91
2022/10/21 15:35:13;;;;;;;;;;;;;;;15.57;60.06;99932.00;4366524;32;20003;-90
2022/10/21 15:37:38;;;;;;;;;;;;;;;15.57;60.06;99933.78;4365210;32;19966;-89
2022/10/21 15:40:03;;;;;;;;;;;;;;;15.54;60.05;99928.69;4364687;32;35826;-89
2022/10/21 15:42:29;;;;;;;;;;;;;;;15.56;60.06;99932.09;4365738;32;20025;-91
2022/10/21 15:44:54;;;;;;;;;;;;;;;15.52;60.05;99931.41;4353492;32;24806;-91
2022/10/21 15:47:19;;;;;;;;;;;;;;;15.51;60.05;99932.31;4353179;32;31152;-89
2022/10/21 15:49:45;;;;;;;;;;;;;;;15.51;60.04;99927.06;4367261;32;19975;-89
2022/10/21 15:52:10;;;;;;;;;;;;;;;15.45;60.04;99927.38;4354142;32;20014;-90
2022/10/21 15:54:36;;;;;;;;;;;;;;;15.39;60.04;99934.72;4366684;32;20007;-89
2022/10/21 15:57:01;;;;;;;;;;;;;;;15.35;60.04;99929.59;4365819;32;37626;-89
2022/10/21 15:59:30;;;;;;;;;;;;;;;15.34;60.04;99927.03;4353641;32;20010;-89
2022/10/21 16:01:55;;;;;;;;;;;;;;;15.38;60.04;99915.50;4353328;32;20064;-93
2022/10/21 16:04:20;;;;;;;;;;;;;;;15.36;60.04;99914.69;4365583;32;24339;-90
2022/10/21 16:06:49;;;;;;;;;;;;;;;15.19;60.03;99926.03;4353869;32;20319;-90
2022/10/21 16:09:15;;;;;;;;;;;;;;;15.23;60.04;99927.56;4354653;32;20288;-90
2022/10/21 16:11:40;;;;;;;;;;;;;;;15.11;60.03;99930.78;4367032;32;20005;-91
2022/10/21 16:14:08;;;;;;;;;;;;;;;15.25;60.05;99938.00;4353719;32;19987;-89
2022/10/21 16:16:35;;;;;;;;;;;;;;;15.18;60.03;99942.69;4366681;32;19986;-90
2022/10/21 16:19:00;;;;;;;;;;;;;;;15.19;60.04;99938.28;4351786;32;19971;-89
2022/10/21 16:21:25;;;;;;;;;;;;;;;14.97;60.02;99938.47;4352571;32;38201;-90
2022/10/21 16:23:52;;;;;;;;;;;;;;;14.98;60.02;99941.00;4366249;32;20020;-90
2022/10/21 16:26:21;;;;;;;;;;;;;;;14.99;60.02;99957.59;4354069;32;19995;-89
2022/10/21 16:28:46;;;;;;;;;;;;;;;14.95;60.02;99945.53;4366350;32;19984;-90
2022/10/21 16:31:12;;;;;;;;;;;;;;;14.77;60.01;99949.00;4354109;32;20010;-91
2022/10/21 16:33:37;;;;;;;;;;;;;;;14.75;60.01;99941.22;4353871;32;19991;-90
2022/10/21 16:36:08;;;;;;;;;;;;;;;14.75;60.01;99943.84;4365810;32;20303;-89
2022/10/21 16:38:33;;;;;;;;;;;;;;;14.69;60.00;99946.75;4366454;32;19993;-90
2022/10/21 16:40:58;;;;;;;;;;;;;;;14.76;60.01;99952.56;4367500;32;35322;-90
2022/10/21 16:43:24;;;;;;;;;;;;;;;14.78;60.02;99948.94;4366841;32;33763;-90
2022/10/21 16:45:49;;;;;;;;;;;;;;;14.78;60.01;99948.94;4367879;32;19986;-92
2022/10/21 16:48:14;;;;;;;;;;;;;;;14.78;60.02;99941.06;4355540;32;20014;-90
2022/10/21 16:50:44;;;;;;;;;;;;;;;14.66;60.00;99939.84;4354208;32;35398;-90
2022/10/21 16:53:11;;;;;;;;;;;;;;;14.68;60.01;99937.19;4368242;32;20645;-90
2022/10/21 16:55:36;;;;;;;;;;;;;;;14.84;60.01;99939.94;4367996;32;20386;-90
2022/10/21 16:58:01;;;;;;;;;;;;;;;14.76;60.01;99944.69;4355091;32;33351;-90
2022/10/21 17:00:27;;;;;;;;;;;;;;;14.70;60.01;99941.44;4380682;32;24330;-88
2022/10/21 17:02:52;;;;;;;;;;;;;;;14.49;60.00;99941.56;4348867;32;21447;-90
2022/10/21 17:05:18;;;;;;;;;;;;;;;14.46;59.99;99941.69;4349734;32;19993;-90
2022/10/21 17:07:43;;;;;;;;;;;;;;;14.39;60.01;99939.31;4377753;32;20006;-89
2022/10/21 17:10:08;;;;;;;;;;;;;;;14.37;59.99;99940.28;4365378;32;19998;-91
2022/10/21 17:12:34;;;;;;;;;;;;;;;14.46;59.99;99941.69;4361271;32;20003;-89
2022/10/21 17:14:59;;;;;;;;;;;;;;;14.42;60.00;99935.69;4341137;32;20006;-93
2022/10/21 17:17:24;;;;;;;;;;;;;;;14.43;59.99;99937.44;4371387;32;31434;-92